Terminal Aerodrome Forecast
Issued by NWS Quad Cities IA IL

Home | Current Version | Previous Version | Text Only | Print | Product List | Glossary On
Versions: 1 2 3 4 5 6 7 8 9 10 11 12 13 14 15 16 17 18 19 20 21 22 23 24 25
000
FTUS43 KDVN 280520
TAFMLI
TAF
KMLI 280520Z 2806/2906 03005KT P6SM BKN100
     FM281200 34006KT 4SM BR VCSH BKN025
     FM281400 29010KT P6SM BKN120
     FM282000 28013G20KT P6SM BKN050
     FM290100 27006KT P6SM SCT100=

USA.gov is the U.S. government's official web portal to all federal, state and local government web resources and services.